sensor_id;sensor_type;location;lat;lon;timestamp;P1;durP1;ratioP1;P2;durP2;ratioP2
12263;SDS011;6194;49.010;8.414;2023-04-25T00:00:44;5.20;;;4.80;;
12263;SDS011;6194;49.010;8.414;2023-04-25T00:03:10;5.00;;;4.50;;
12263;SDS011;6194;49.010;8.414;2023-04-25T00:05:35;5.83;;;4.53;;
12263;SDS011;6194;49.010;8.414;2023-04-25T00:08:02;6.60;;;4.90;;
12263;SDS011;6194;49.010;8.414;2023-04-25T00:10:28;5.37;;;4.63;;
12263;SDS011;6194;49.010;8.414;2023-04-25T00:12:54;4.90;;;4.50;;
12263;SDS011;6194;49.010;8.414;2023-04-25T00:15:19;4.60;;;4.20;;
12263;SDS011;6194;49.010;8.414;2023-04-25T00:17:45;6.40;;;4.70;;
12263;SDS011;6194;49.010;8.414;2023-04-25T00:20:11;5.27;;;4.77;;
12263;SDS011;6194;49.010;8.414;2023-04-25T00:22:37;5.30;;;4.80;;
12263;SDS011;6194;49.010;8.414;2023-04-25T00:25:06;5.00;;;4.60;;
12263;SDS011;6194;49.010;8.414;2023-04-25T00:27:32;4.43;;;4.13;;
12263;SDS011;6194;49.010;8.414;2023-04-25T00:29:57;4.87;;;4.47;;
12263;SDS011;6194;49.010;8.414;2023-04-25T00:32:23;5.07;;;4.33;;
12263;SDS011;6194;49.010;8.414;2023-04-25T00:34:49;4.10;;;3.80;;
12263;SDS011;6194;49.010;8.414;2023-04-25T00:37:15;4.20;;;3.80;;
12263;SDS011;6194;49.010;8.414;2023-04-25T00:39:40;4.87;;;3.97;;
12263;SDS011;6194;49.010;8.414;2023-04-25T00:42:06;4.07;;;3.73;;
12263;SDS011;6194;49.010;8.414;2023-04-25T00:44:32;4.00;;;3.70;;
12263;SDS011;6194;49.010;8.414;2023-04-25T00:47:01;4.07;;;3.50;;
12263;SDS011;6194;49.010;8.414;2023-04-25T00:49:28;3.70;;;3.40;;
12263;SDS011;6194;49.010;8.414;2023-04-25T00:51:53;3.80;;;3.40;;
12263;SDS011;6194;49.010;8.414;2023-04-25T00:54:19;4.03;;;3.40;;
12263;SDS011;6194;49.010;8.414;2023-04-25T00:56:45;3.97;;;3.67;;
12263;SDS011;6194;49.010;8.414;2023-04-25T00:59:11;3.77;;;3.47;;
12263;SDS011;6194;49.010;8.414;2023-04-25T01:01:37;4.03;;;3.60;;
12263;SDS011;6194;49.010;8.414;2023-04-25T01:04:04;3.87;;;3.57;;
12263;SDS011;6194;49.010;8.414;2023-04-25T01:06:29;4.40;;;3.67;;
12263;SDS011;6194;49.010;8.414;2023-04-25T01:08:56;3.60;;;3.33;;
12263;SDS011;6194;49.010;8.414;2023-04-25T01:11:22;3.87;;;3.50;;
12263;SDS011;6194;49.010;8.414;2023-04-25T01:13:48;4.23;;;3.50;;
12263;SDS011;6194;49.010;8.414;2023-04-25T01:16:14;3.90;;;3.60;;
12263;SDS011;6194;49.010;8.414;2023-04-25T01:18:40;3.80;;;3.50;;
12263;SDS011;6194;49.010;8.414;2023-04-25T01:21:07;3.97;;;3.67;;
12263;SDS011;6194;49.010;8.414;2023-04-25T01:23:34;3.90;;;3.60;;
12263;SDS011;6194;49.010;8.414;2023-04-25T01:26:01;4.00;;;3.70;;
12263;SDS011;6194;49.010;8.414;2023-04-25T01:28:28;5.17;;;3.90;;
12263;SDS011;6194;49.010;8.414;2023-04-25T01:30:53;4.23;;;3.90;;
12263;SDS011;6194;49.010;8.414;2023-04-25T01:33:20;4.43;;;4.10;;
12263;SDS011;6194;49.010;8.414;2023-04-25T01:35:46;4.10;;;3.80;;
12263;SDS011;6194;49.010;8.414;2023-04-25T01:38:12;4.33;;;3.63;;
12263;SDS011;6194;49.010;8.414;2023-04-25T01:40:39;3.97;;;3.70;;
12263;SDS011;6194;49.010;8.414;2023-04-25T01:43:06;4.40;;;3.83;;
12263;SDS011;6194;49.010;8.414;2023-04-25T01:45:33;4.03;;;3.73;;
12263;SDS011;6194;49.010;8.414;2023-04-25T01:48:01;4.17;;;3.83;;
12263;SDS011;6194;49.010;8.414;2023-04-25T01:50:27;4.37;;;3.97;;
12263;SDS011;6194;49.010;8.414;2023-04-25T01:52:52;4.10;;;3.80;;
12263;SDS011;6194;49.010;8.414;2023-04-25T01:55:18;4.17;;;3.87;;
12263;SDS011;6194;49.010;8.414;2023-04-25T01:57:44;3.90;;;3.60;;
12263;SDS011;6194;49.010;8.414;2023-04-25T02:00:10;4.50;;;4.10;;
12263;SDS011;6194;49.010;8.414;2023-04-25T02:02:36;4.33;;;3.93;;
12263;SDS011;6194;49.010;8.414;2023-04-25T02:05:02;4.53;;;3.77;;
12263;SDS011;6194;49.010;8.414;2023-04-25T02:07:27;3.83;;;3.53;;
12263;SDS011;6194;49.010;8.414;2023-04-25T02:09:53;4.23;;;3.80;;
12263;SDS011;6194;49.010;8.414;2023-04-25T02:12:19;4.00;;;3.70;;
12263;SDS011;6194;49.010;8.414;2023-04-25T02:14:44;5.57;;;4.13;;
12263;SDS011;6194;49.010;8.414;2023-04-25T02:17:10;4.10;;;3.77;;
12263;SDS011;6194;49.010;8.414;2023-04-25T02:19:37;4.70;;;4.20;;
12263;SDS011;6194;49.010;8.414;2023-04-25T02:22:03;4.80;;;4.10;;
12263;SDS011;6194;49.010;8.414;2023-04-25T02:24:28;4.17;;;3.77;;
12263;SDS011;6194;49.010;8.414;2023-04-25T02:26:54;4.83;;;4.40;;
12263;SDS011;6194;49.010;8.414;2023-04-25T02:29:21;5.03;;;4.03;;
12263;SDS011;6194;49.010;8.414;2023-04-25T02:31:46;4.90;;;4.20;;
12263;SDS011;6194;49.010;8.414;2023-04-25T02:34:12;5.17;;;4.67;;
12263;SDS011;6194;49.010;8.414;2023-04-25T02:36:37;5.37;;;4.87;;
12263;SDS011;6194;49.010;8.414;2023-04-25T02:39:03;5.70;;;5.20;;
12263;SDS011;6194;49.010;8.414;2023-04-25T02:41:29;5.00;;;4.60;;
12263;SDS011;6194;49.010;8.414;2023-04-25T02:43:55;6.37;;;4.80;;
12263;SDS011;6194;49.010;8.414;2023-04-25T02:46:20;5.37;;;4.87;;
12263;SDS011;6194;49.010;8.414;2023-04-25T02:48:46;7.77;;;5.60;;
12263;SDS011;6194;49.010;8.414;2023-04-25T02:51:11;5.27;;;4.87;;
12263;SDS011;6194;49.010;8.414;2023-04-25T02:53:37;5.73;;;5.23;;
12263;SDS011;6194;49.010;8.414;2023-04-25T02:56:03;6.03;;;5.53;;
12263;SDS011;6194;49.010;8.414;2023-04-25T02:58:29;7.13;;;5.60;;
12263;SDS011;6194;49.010;8.414;2023-04-25T03:00:54;6.33;;;5.83;;
12263;SDS011;6194;49.010;8.414;2023-04-25T03:03:20;5.97;;;5.47;;
12263;SDS011;6194;49.010;8.414;2023-04-25T03:05:49;5.90;;;5.30;;
12263;SDS011;6194;49.010;8.414;2023-04-25T03:08:16;5.77;;;5.00;;
12263;SDS011;6194;49.010;8.414;2023-04-25T03:10:42;6.10;;;5.60;;
12263;SDS011;6194;49.010;8.414;2023-04-25T03:13:08;6.40;;;5.80;;
12263;SDS011;6194;49.010;8.414;2023-04-25T03:15:34;6.10;;;5.60;;
12263;SDS011;6194;49.010;8.414;2023-04-25T03:18:00;5.47;;;4.97;;
12263;SDS011;6194;49.010;8.414;2023-04-25T03:20:26;5.97;;;5.47;;
12263;SDS011;6194;49.010;8.414;2023-04-25T03:22:51;6.53;;;5.10;;
12263;SDS011;6194;49.010;8.414;2023-04-25T03:25:17;5.93;;;5.40;;
12263;SDS011;6194;49.010;8.414;2023-04-25T03:27:43;5.83;;;5.30;;
12263;SDS011;6194;49.010;8.414;2023-04-25T03:30:08;5.40;;;5.00;;
12263;SDS011;6194;49.010;8.414;2023-04-25T03:32:34;6.33;;;5.73;;
12263;SDS011;6194;49.010;8.414;2023-04-25T03:35:00;6.07;;;5.47;;
12263;SDS011;6194;49.010;8.414;2023-04-25T03:37:25;5.77;;;5.17;;
12263;SDS011;6194;49.010;8.414;2023-04-25T03:39:51;5.53;;;5.13;;
12263;SDS011;6194;49.010;8.414;2023-04-25T03:42:16;5.83;;;5.30;;
12263;SDS011;6194;49.010;8.414;2023-04-25T03:44:42;6.00;;;5.30;;
12263;SDS011;6194;49.010;8.414;2023-04-25T03:47:08;6.00;;;5.43;;
12263;SDS011;6194;49.010;8.414;2023-04-25T03:49:34;6.63;;;4.97;;
12263;SDS011;6194;49.010;8.414;2023-04-25T03:52:01;5.90;;;5.30;;
12263;SDS011;6194;49.010;8.414;2023-04-25T03:54:27;5.43;;;5.03;;
12263;SDS011;6194;49.010;8.414;2023-04-25T03:56:52;5.50;;;5.00;;
12263;SDS011;6194;49.010;8.414;2023-04-25T03:59:18;5.60;;;5.03;;
12263;SDS011;6194;49.010;8.414;2023-04-25T04:01:43;5.97;;;5.10;;
12263;SDS011;6194;49.010;8.414;2023-04-25T04:04:09;5.57;;;4.93;;
12263;SDS011;6194;49.010;8.414;2023-04-25T04:06:34;5.43;;;4.93;;
12263;SDS011;6194;49.010;8.414;2023-04-25T04:09:01;5.30;;;4.90;;
12263;SDS011;6194;49.010;8.414;2023-04-25T04:11:27;5.60;;;5.10;;
12263;SDS011;6194;49.010;8.414;2023-04-25T04:13:53;5.60;;;4.70;;
12263;SDS011;6194;49.010;8.414;2023-04-25T04:16:18;5.67;;;5.03;;
12263;SDS011;6194;49.010;8.414;2023-04-25T04:18:44;5.60;;;4.60;;
12263;SDS011;6194;49.010;8.414;2023-04-25T04:21:10;6.07;;;4.80;;
12263;SDS011;6194;49.010;8.414;2023-04-25T04:23:36;5.63;;;5.00;;
12263;SDS011;6194;49.010;8.414;2023-04-25T04:26:02;5.60;;;4.77;;
12263;SDS011;6194;49.010;8.414;2023-04-25T04:28:28;5.27;;;4.77;;
12263;SDS011;6194;49.010;8.414;2023-04-25T04:30:53;4.70;;;4.30;;
12263;SDS011;6194;49.010;8.414;2023-04-25T04:33:20;5.23;;;4.77;;
12263;SDS011;6194;49.010;8.414;2023-04-25T04:35:46;5.07;;;4.60;;
12263;SDS011;6194;49.010;8.414;2023-04-25T04:38:12;4.93;;;4.53;;
12263;SDS011;6194;49.010;8.414;2023-04-25T04:40:40;5.00;;;4.60;;
12263;SDS011;6194;49.010;8.414;2023-04-25T04:43:08;5.30;;;4.80;;
12263;SDS011;6194;49.010;8.414;2023-04-25T04:45:35;5.90;;;5.10;;
12263;SDS011;6194;49.010;8.414;2023-04-25T04:48:03;5.40;;;4.90;;
12263;SDS011;6194;49.010;8.414;2023-04-25T04:50:32;5.30;;;4.90;;
12263;SDS011;6194;49.010;8.414;2023-04-25T04:52:57;5.20;;;4.70;;
12263;SDS011;6194;49.010;8.414;2023-04-25T04:55:23;5.10;;;4.63;;
12263;SDS011;6194;49.010;8.414;2023-04-25T04:57:49;5.07;;;4.67;;
12263;SDS011;6194;49.010;8.414;2023-04-25T05:00:15;5.10;;;4.70;;
12263;SDS011;6194;49.010;8.414;2023-04-25T05:02:40;5.00;;;4.10;;
12263;SDS011;6194;49.010;8.414;2023-04-25T05:05:06;5.40;;;4.90;;
12263;SDS011;6194;49.010;8.414;2023-04-25T05:07:32;5.03;;;4.63;;
12263;SDS011;6194;49.010;8.414;2023-04-25T05:09:58;5.13;;;4.63;;
12263;SDS011;6194;49.010;8.414;2023-04-25T05:12:24;4.57;;;4.27;;
12263;SDS011;6194;49.010;8.414;2023-04-25T05:14:49;4.67;;;4.27;;
12263;SDS011;6194;49.010;8.414;2023-04-25T05:17:15;4.93;;;4.53;;
12263;SDS011;6194;49.010;8.414;2023-04-25T05:19:41;7.70;;;4.70;;
12263;SDS011;6194;49.010;8.414;2023-04-25T05:22:06;4.87;;;4.37;;
12263;SDS011;6194;49.010;8.414;2023-04-25T05:24:32;5.30;;;4.80;;
12263;SDS011;6194;49.010;8.414;2023-04-25T05:26:57;5.00;;;4.50;;
12263;SDS011;6194;49.010;8.414;2023-04-25T05:29:23;4.70;;;4.07;;
12263;SDS011;6194;49.010;8.414;2023-04-25T05:31:48;4.80;;;4.40;;
12263;SDS011;6194;49.010;8.414;2023-04-25T05:34:14;5.10;;;4.60;;
12263;SDS011;6194;49.010;8.414;2023-04-25T05:36:41;4.83;;;4.23;;
12263;SDS011;6194;49.010;8.414;2023-04-25T05:39:07;4.43;;;4.13;;
12263;SDS011;6194;49.010;8.414;2023-04-25T05:41:33;4.30;;;4.00;;
12263;SDS011;6194;49.010;8.414;2023-04-25T05:43:59;4.60;;;4.17;;
12263;SDS011;6194;49.010;8.414;2023-04-25T05:46:24;4.20;;;3.90;;
12263;SDS011;6194;49.010;8.414;2023-04-25T05:48:50;3.97;;;3.67;;
12263;SDS011;6194;49.010;8.414;2023-04-25T05:51:16;4.00;;;3.70;;
12263;SDS011;6194;49.010;8.414;2023-04-25T05:53:43;4.50;;;4.10;;
12263;SDS011;6194;49.010;8.414;2023-04-25T05:56:09;3.77;;;3.47;;
12263;SDS011;6194;49.010;8.414;2023-04-25T05:58:34;3.77;;;3.47;;
12263;SDS011;6194;49.010;8.414;2023-04-25T06:01:00;3.73;;;3.43;;
12263;SDS011;6194;49.010;8.414;2023-04-25T06:03:26;3.70;;;3.40;;
12263;SDS011;6194;49.010;8.414;2023-04-25T06:05:51;3.80;;;3.50;;
12263;SDS011;6194;49.010;8.414;2023-04-25T06:08:17;4.17;;;3.80;;
12263;SDS011;6194;49.010;8.414;2023-04-25T06:10:42;4.57;;;4.17;;
12263;SDS011;6194;49.010;8.414;2023-04-25T06:13:08;4.60;;;4.20;;
12263;SDS011;6194;49.010;8.414;2023-04-25T06:15:34;4.43;;;4.03;;
12263;SDS011;6194;49.010;8.414;2023-04-25T06:17:59;5.23;;;4.30;;
12263;SDS011;6194;49.010;8.414;2023-04-25T06:20:25;5.07;;;4.57;;
12263;SDS011;6194;49.010;8.414;2023-04-25T06:22:51;5.50;;;5.10;;
12263;SDS011;6194;49.010;8.414;2023-04-25T06:25:17;5.93;;;5.33;;
12263;SDS011;6194;49.010;8.414;2023-04-25T06:27:43;5.60;;;4.90;;
12263;SDS011;6194;49.010;8.414;2023-04-25T06:30:09;5.07;;;4.67;;
12263;SDS011;6194;49.010;8.414;2023-04-25T06:32:36;5.70;;;5.10;;
12263;SDS011;6194;49.010;8.414;2023-04-25T06:35:02;5.93;;;5.13;;
12263;SDS011;6194;49.010;8.414;2023-04-25T06:37:28;6.50;;;5.77;;
12263;SDS011;6194;49.010;8.414;2023-04-25T06:39:54;5.90;;;5.30;;
12263;SDS011;6194;49.010;8.414;2023-04-25T06:42:20;6.27;;;5.73;;
12263;SDS011;6194;49.010;8.414;2023-04-25T06:44:45;6.00;;;5.40;;
12263;SDS011;6194;49.010;8.414;2023-04-25T06:47:11;5.63;;;5.13;;
12263;SDS011;6194;49.010;8.414;2023-04-25T06:49:36;5.70;;;5.20;;
12263;SDS011;6194;49.010;8.414;2023-04-25T06:52:02;5.60;;;5.20;;
12263;SDS011;6194;49.010;8.414;2023-04-25T06:54:28;6.33;;;5.83;;
12263;SDS011;6194;49.010;8.414;2023-04-25T06:56:54;6.87;;;5.83;;
12263;SDS011;6194;49.010;8.414;2023-04-25T06:59:21;6.77;;;6.07;;
12263;SDS011;6194;49.010;8.414;2023-04-25T07:01:46;7.17;;;6.23;;
12263;SDS011;6194;49.010;8.414;2023-04-25T07:04:12;10.23;;;6.00;;
12263;SDS011;6194;49.010;8.414;2023-04-25T07:06:37;6.00;;;5.50;;
12263;SDS011;6194;49.010;8.414;2023-04-25T07:09:07;6.90;;;5.90;;
12263;SDS011;6194;49.010;8.414;2023-04-25T07:11:35;6.43;;;5.93;;
12263;SDS011;6194;49.010;8.414;2023-04-25T07:14:01;6.37;;;5.90;;
12263;SDS011;6194;49.010;8.414;2023-04-25T07:16:27;6.70;;;6.00;;
12263;SDS011;6194;49.010;8.414;2023-04-25T07:18:52;7.17;;;6.47;;
12263;SDS011;6194;49.010;8.414;2023-04-25T07:21:18;6.60;;;5.97;;
12263;SDS011;6194;49.010;8.414;2023-04-25T07:23:43;6.93;;;6.33;;
12263;SDS011;6194;49.010;8.414;2023-04-25T07:26:09;6.70;;;6.10;;
12263;SDS011;6194;49.010;8.414;2023-04-25T07:28:35;6.13;;;5.63;;
12263;SDS011;6194;49.010;8.414;2023-04-25T07:31:00;6.63;;;6.13;;
12263;SDS011;6194;49.010;8.414;2023-04-25T07:33:26;7.70;;;6.83;;
12263;SDS011;6194;49.010;8.414;2023-04-25T07:35:52;8.17;;;7.17;;
12263;SDS011;6194;49.010;8.414;2023-04-25T07:38:18;8.07;;;7.37;;
12263;SDS011;6194;49.010;8.414;2023-04-25T07:40:43;8.23;;;7.43;;
12263;SDS011;6194;49.010;8.414;2023-04-25T07:43:09;8.80;;;7.83;;
12263;SDS011;6194;49.010;8.414;2023-04-25T07:45:37;9.20;;;8.40;;
12263;SDS011;6194;49.010;8.414;2023-04-25T07:48:02;8.90;;;8.10;;
12263;SDS011;6194;49.010;8.414;2023-04-25T07:50:28;8.10;;;7.40;;
12263;SDS011;6194;49.010;8.414;2023-04-25T07:52:54;7.67;;;6.93;;
12263;SDS011;6194;49.010;8.414;2023-04-25T07:55:20;14.07;;;7.70;;
12263;SDS011;6194;49.010;8.414;2023-04-25T07:57:45;8.30;;;7.50;;
12263;SDS011;6194;49.010;8.414;2023-04-25T08:00:11;8.67;;;7.83;;
12263;SDS011;6194;49.010;8.414;2023-04-25T08:02:37;10.93;;;8.23;;
12263;SDS011;6194;49.010;8.414;2023-04-25T08:05:03;8.83;;;8.07;;
12263;SDS011;6194;49.010;8.414;2023-04-25T08:07:29;10.87;;;9.77;;
12263;SDS011;6194;49.010;8.414;2023-04-25T08:09:54;11.63;;;8.97;;
12263;SDS011;6194;49.010;8.414;2023-04-25T08:12:20;11.10;;;10.00;;
12263;SDS011;6194;49.010;8.414;2023-04-25T08:14:46;10.53;;;9.53;;
12263;SDS011;6194;49.010;8.414;2023-04-25T08:17:11;11.37;;;10.37;;
12263;SDS011;6194;49.010;8.414;2023-04-25T08:19:37;12.47;;;11.27;;
12263;SDS011;6194;49.010;8.414;2023-04-25T08:22:03;10.60;;;9.60;;
12263;SDS011;6194;49.010;8.414;2023-04-25T08:24:28;11.23;;;10.10;;
12263;SDS011;6194;49.010;8.414;2023-04-25T08:26:54;10.90;;;9.90;;
12263;SDS011;6194;49.010;8.414;2023-04-25T08:29:20;12.07;;;10.87;;
12263;SDS011;6194;49.010;8.414;2023-04-25T08:31:45;11.73;;;10.63;;
12263;SDS011;6194;49.010;8.414;2023-04-25T08:34:12;10.17;;;9.27;;
12263;SDS011;6194;49.010;8.414;2023-04-25T08:36:38;9.80;;;9.00;;
12263;SDS011;6194;49.010;8.414;2023-04-25T08:39:04;10.30;;;9.30;;
12263;SDS011;6194;49.010;8.414;2023-04-25T08:41:29;11.43;;;10.43;;
12263;SDS011;6194;49.010;8.414;2023-04-25T08:43:55;10.63;;;9.53;;
12263;SDS011;6194;49.010;8.414;2023-04-25T08:46:22;10.90;;;9.77;;
12263;SDS011;6194;49.010;8.414;2023-04-25T08:48:48;10.50;;;9.70;;
12263;SDS011;6194;49.010;8.414;2023-04-25T08:51:19;10.70;;;9.70;;
12263;SDS011;6194;49.010;8.414;2023-04-25T08:53:48;11.63;;;10.43;;
12263;SDS011;6194;49.010;8.414;2023-04-25T08:56:16;10.43;;;9.53;;
12263;SDS011;6194;49.010;8.414;2023-04-25T08:58:43;10.53;;;9.53;;
12263;SDS011;6194;49.010;8.414;2023-04-25T09:01:11;10.70;;;9.63;;
12263;SDS011;6194;49.010;8.414;2023-04-25T09:03:36;10.70;;;9.70;;
12263;SDS011;6194;49.010;8.414;2023-04-25T09:06:03;10.80;;;9.70;;
12263;SDS011;6194;49.010;8.414;2023-04-25T09:08:28;10.50;;;9.57;;
12263;SDS011;6194;49.010;8.414;2023-04-25T09:10:55;11.10;;;10.00;;
12263;SDS011;6194;49.010;8.414;2023-04-25T09:13:24;11.33;;;10.07;;
12263;SDS011;6194;49.010;8.414;2023-04-25T09:15:52;11.43;;;10.33;;
12263;SDS011;6194;49.010;8.414;2023-04-25T09:18:26;10.57;;;9.67;;
12263;SDS011;6194;49.010;8.414;2023-04-25T09:20:54;12.43;;;11.07;;
12263;SDS011;6194;49.010;8.414;2023-04-25T09:23:21;12.40;;;11.30;;
12263;SDS011;6194;49.010;8.414;2023-04-25T09:25:48;11.80;;;10.70;;
12263;SDS011;6194;49.010;8.414;2023-04-25T09:28:14;11.77;;;10.57;;
12263;SDS011;6194;49.010;8.414;2023-04-25T09:30:40;12.13;;;10.93;;
12263;SDS011;6194;49.010;8.414;2023-04-25T09:33:07;11.70;;;10.50;;
12263;SDS011;6194;49.010;8.414;2023-04-25T09:35:40;12.27;;;10.17;;
12263;SDS011;6194;49.010;8.414;2023-04-25T09:38:13;15.63;;;11.37;;
12263;SDS011;6194;49.010;8.414;2023-04-25T09:40:43;11.13;;;9.93;;
12263;SDS011;6194;49.010;8.414;2023-04-25T09:43:30;21.67;;;11.80;;
12263;SDS011;6194;49.010;8.414;2023-04-25T09:45:55;25.13;;;11.50;;
12263;SDS011;6194;49.010;8.414;2023-04-25T09:48:25;10.30;;;9.23;;
12263;SDS011;6194;49.010;8.414;2023-04-25T09:51:13;16.43;;;10.63;;
12263;SDS011;6194;49.010;8.414;2023-04-25T09:53:39;12.77;;;11.17;;
12263;SDS011;6194;49.010;8.414;2023-04-25T09:56:11;13.93;;;12.43;;
12263;SDS011;6194;49.010;8.414;2023-04-25T09:58:38;15.73;;;12.80;;
12263;SDS011;6194;49.010;8.414;2023-04-25T10:01:11;14.47;;;12.93;;
12263;SDS011;6194;49.010;8.414;2023-04-25T10:03:38;16.97;;;14.03;;
12263;SDS011;6194;49.010;8.414;2023-04-25T10:06:09;16.50;;;14.03;;
12263;SDS011;6194;49.010;8.414;2023-04-25T10:08:39;17.23;;;15.03;;
12263;SDS011;6194;49.010;8.414;2023-04-25T10:11:07;18.90;;;14.47;;
12263;SDS011;6194;49.010;8.414;2023-04-25T10:13:34;20.50;;;16.07;;
12263;SDS011;6194;49.010;8.414;2023-04-25T10:16:01;20.03;;;15.77;;
12263;SDS011;6194;49.010;8.414;2023-04-25T10:18:28;18.80;;;15.37;;
12263;SDS011;6194;49.010;8.414;2023-04-25T10:20:57;19.80;;;14.87;;
12263;SDS011;6194;49.010;8.414;2023-04-25T10:23:24;21.90;;;15.13;;
12263;SDS011;6194;49.010;8.414;2023-04-25T10:25:51;20.10;;;14.40;;
12263;SDS011;6194;49.010;8.414;2023-04-25T10:28:17;17.70;;;14.07;;
12263;SDS011;6194;49.010;8.414;2023-04-25T10:36:13;17.50;;;13.33;;
12263;SDS011;6194;49.010;8.414;2023-04-25T10:38:47;19.60;;;14.80;;
12263;SDS011;6194;49.010;8.414;2023-04-25T10:41:13;18.57;;;13.40;;
12263;SDS011;6194;49.010;8.414;2023-04-25T10:43:40;14.20;;;12.67;;
12263;SDS011;6194;49.010;8.414;2023-04-25T10:46:26;19.60;;;12.70;;
12263;SDS011;6194;49.010;8.414;2023-04-25T10:51:25;15.67;;;13.50;;
12263;SDS011;6194;49.010;8.414;2023-04-25T10:56:21;15.53;;;11.40;;
12263;SDS011;6194;49.010;8.414;2023-04-25T10:58:50;15.90;;;12.97;;
12263;SDS011;6194;49.010;8.414;2023-04-25T11:01:19;15.33;;;11.97;;
12263;SDS011;6194;49.010;8.414;2023-04-25T11:03:46;18.63;;;13.07;;
12263;SDS011;6194;49.010;8.414;2023-04-25T11:09:16;16.17;;;13.13;;
12263;SDS011;6194;49.010;8.414;2023-04-25T11:11:41;15.53;;;13.00;;
12263;SDS011;6194;49.010;8.414;2023-04-25T11:14:07;16.63;;;12.90;;
12263;SDS011;6194;49.010;8.414;2023-04-25T11:16:33;14.53;;;10.93;;
12263;SDS011;6194;49.010;8.414;2023-04-25T11:18:58;16.60;;;12.10;;
12263;SDS011;6194;49.010;8.414;2023-04-25T11:21:27;15.43;;;11.87;;
12263;SDS011;6194;49.010;8.414;2023-04-25T11:23:53;16.77;;;12.30;;
12263;SDS011;6194;49.010;8.414;2023-04-25T11:26:21;16.40;;;13.20;;
12263;SDS011;6194;49.010;8.414;2023-04-25T11:28:48;15.10;;;12.43;;
12263;SDS011;6194;49.010;8.414;2023-04-25T11:31:14;15.23;;;12.70;;
12263;SDS011;6194;49.010;8.414;2023-04-25T11:33:40;13.87;;;11.97;;
12263;SDS011;6194;49.010;8.414;2023-04-25T11:36:05;12.40;;;9.43;;
12263;SDS011;6194;49.010;8.414;2023-04-25T11:38:31;11.10;;;9.13;;
12263;SDS011;6194;49.010;8.414;2023-04-25T11:40:57;10.50;;;8.73;;
12263;SDS011;6194;49.010;8.414;2023-04-25T11:43:23;10.27;;;9.27;;
12263;SDS011;6194;49.010;8.414;2023-04-25T11:45:50;10.30;;;8.33;;
12263;SDS011;6194;49.010;8.414;2023-04-25T11:48:17;9.53;;;8.07;;
12263;SDS011;6194;49.010;8.414;2023-04-25T11:50:43;11.27;;;8.83;;
12263;SDS011;6194;49.010;8.414;2023-04-25T11:53:10;9.10;;;8.27;;
12263;SDS011;6194;49.010;8.414;2023-04-25T11:55:36;10.33;;;8.27;;
12263;SDS011;6194;49.010;8.414;2023-04-25T11:58:02;8.90;;;8.00;;
12263;SDS011;6194;49.010;8.414;2023-04-25T12:00:29;9.77;;;8.03;;
12263;SDS011;6194;49.010;8.414;2023-04-25T12:02:55;12.17;;;8.47;;
12263;SDS011;6194;49.010;8.414;2023-04-25T12:05:28;9.57;;;8.67;;
12263;SDS011;6194;49.010;8.414;2023-04-25T12:07:55;9.93;;;8.67;;
12263;SDS011;6194;49.010;8.414;2023-04-25T12:10:21;10.13;;;9.10;;
12263;SDS011;6194;49.010;8.414;2023-04-25T12:12:49;12.97;;;10.07;;
12263;SDS011;6194;49.010;8.414;2023-04-25T12:15:18;16.57;;;10.03;;
12263;SDS011;6194;49.010;8.414;2023-04-25T12:17:49;11.40;;;10.23;;
12263;SDS011;6194;49.010;8.414;2023-04-25T12:20:16;14.17;;;11.43;;
12263;SDS011;6194;49.010;8.414;2023-04-25T12:22:47;15.20;;;11.93;;
12263;SDS011;6194;49.010;8.414;2023-04-25T12:25:20;13.57;;;12.07;;
12263;SDS011;6194;49.010;8.414;2023-04-25T12:28:17;16.10;;;13.10;;
12263;SDS011;6194;49.010;8.414;2023-04-25T12:30:55;13.10;;;11.47;;
12263;SDS011;6194;49.010;8.414;2023-04-25T12:33:29;11.17;;;10.13;;
12263;SDS011;6194;49.010;8.414;2023-04-25T12:35:59;12.17;;;9.90;;
12263;SDS011;6194;49.010;8.414;2023-04-25T12:38:29;9.77;;;8.70;;
12263;SDS011;6194;49.010;8.414;2023-04-25T12:40:56;9.00;;;8.20;;
12263;SDS011;6194;49.010;8.414;2023-04-25T12:43:23;10.40;;;8.27;;
12263;SDS011;6194;49.010;8.414;2023-04-25T12:45:49;8.07;;;7.33;;
12263;SDS011;6194;49.010;8.414;2023-04-25T12:48:16;7.50;;;6.80;;
12263;SDS011;6194;49.010;8.414;2023-04-25T12:50:42;9.00;;;6.28;;
12263;SDS011;6194;49.010;8.414;2023-04-25T12:53:08;6.35;;;5.75;;
12263;SDS011;6194;49.010;8.414;2023-04-25T12:55:34;7.35;;;6.35;;
12263;SDS011;6194;49.010;8.414;2023-04-25T12:58:00;6.80;;;6.10;;
12263;SDS011;6194;49.010;8.414;2023-04-25T13:00:26;6.80;;;6.18;;
12263;SDS011;6194;49.010;8.414;2023-04-25T13:02:52;6.50;;;5.57;;
12263;SDS011;6194;49.010;8.414;2023-04-25T13:05:18;4.85;;;4.38;;
12263;SDS011;6194;49.010;8.414;2023-04-25T13:07:43;4.40;;;4.00;;
12263;SDS011;6194;49.010;8.414;2023-04-25T13:10:09;3.95;;;3.50;;
12263;SDS011;6194;49.010;8.414;2023-04-25T13:12:38;4.07;;;3.67;;
12263;SDS011;6194;49.010;8.414;2023-04-25T13:15:03;3.33;;;3.03;;
12263;SDS011;6194;49.010;8.414;2023-04-25T13:17:29;4.75;;;3.70;;
12263;SDS011;6194;49.010;8.414;2023-04-25T13:19:55;4.47;;;4.07;;
12263;SDS011;6194;49.010;8.414;2023-04-25T13:22:21;4.13;;;3.83;;
12263;SDS011;6194;49.010;8.414;2023-04-25T13:24:46;4.00;;;3.70;;
12263;SDS011;6194;49.010;8.414;2023-04-25T13:27:12;3.88;;;3.58;;
12263;SDS011;6194;49.010;8.414;2023-04-25T13:29:38;4.30;;;3.90;;
12263;SDS011;6194;49.010;8.414;2023-04-25T13:32:05;3.95;;;3.55;;
12263;SDS011;6194;49.010;8.414;2023-04-25T13:34:31;3.70;;;3.50;;
12263;SDS011;6194;49.010;8.414;2023-04-25T13:36:57;3.85;;;3.50;;
12263;SDS011;6194;49.010;8.414;2023-04-25T13:39:23;6.03;;;4.13;;
12263;SDS011;6194;49.010;8.414;2023-04-25T13:41:48;4.53;;;4.10;;
12263;SDS011;6194;49.010;8.414;2023-04-25T13:44:14;4.07;;;3.75;;
12263;SDS011;6194;49.010;8.414;2023-04-25T13:46:40;4.15;;;3.85;;
12263;SDS011;6194;49.010;8.414;2023-04-25T13:49:05;4.82;;;4.20;;
12263;SDS011;6194;49.010;8.414;2023-04-25T13:51:31;5.32;;;4.80;;
12263;SDS011;6194;49.010;8.414;2023-04-25T13:53:57;5.18;;;3.63;;
12263;SDS011;6194;49.010;8.414;2023-04-25T13:56:23;3.72;;;3.42;;
12263;SDS011;6194;49.010;8.414;2023-04-25T13:58:49;4.38;;;3.85;;
12263;SDS011;6194;49.010;8.414;2023-04-25T14:01:16;4.50;;;4.10;;
12263;SDS011;6194;49.010;8.414;2023-04-25T14:03:42;4.85;;;4.18;;
12263;SDS011;6194;49.010;8.414;2023-04-25T14:06:08;4.22;;;3.67;;
12263;SDS011;6194;49.010;8.414;2023-04-25T14:08:34;4.82;;;4.10;;
12263;SDS011;6194;49.010;8.414;2023-04-25T14:10:59;3.70;;;3.40;;
12263;SDS011;6194;49.010;8.414;2023-04-25T14:13:25;4.20;;;3.90;;
12263;SDS011;6194;49.010;8.414;2023-04-25T14:15:51;3.85;;;3.30;;
12263;SDS011;6194;49.010;8.414;2023-04-25T14:18:17;3.90;;;3.60;;
12263;SDS011;6194;49.010;8.414;2023-04-25T14:20:45;3.90;;;3.60;;
12263;SDS011;6194;49.010;8.414;2023-04-25T14:23:11;3.67;;;3.35;;
12263;SDS011;6194;49.010;8.414;2023-04-25T14:25:37;6.20;;;4.00;;
12263;SDS011;6194;49.010;8.414;2023-04-25T14:28:03;4.88;;;4.05;;
12263;SDS011;6194;49.010;8.414;2023-04-25T14:30:28;4.95;;;3.60;;
12263;SDS011;6194;49.010;8.414;2023-04-25T14:32:54;4.07;;;3.70;;
12263;SDS011;6194;49.010;8.414;2023-04-25T14:35:20;3.95;;;3.65;;
12263;SDS011;6194;49.010;8.414;2023-04-25T14:37:46;4.28;;;3.97;;
12263;SDS011;6194;49.010;8.414;2023-04-25T14:40:12;4.50;;;4.10;;
12263;SDS011;6194;49.010;8.414;2023-04-25T14:42:40;4.68;;;4.13;;
12263;SDS011;6194;49.010;8.414;2023-04-25T14:45:06;4.43;;;4.03;;
12263;SDS011;6194;49.010;8.414;2023-04-25T14:47:33;4.25;;;3.95;;
12263;SDS011;6194;49.010;8.414;2023-04-25T14:50:02;4.50;;;3.90;;
12263;SDS011;6194;49.010;8.414;2023-04-25T14:52:27;5.13;;;4.47;;
12263;SDS011;6194;49.010;8.414;2023-04-25T14:54:53;6.28;;;3.80;;
12263;SDS011;6194;49.010;8.414;2023-04-25T14:57:19;3.50;;;3.20;;
12263;SDS011;6194;49.010;8.414;2023-04-25T14:59:44;4.63;;;3.50;;
12263;SDS011;6194;49.010;8.414;2023-04-25T15:02:10;3.60;;;3.30;;
12263;SDS011;6194;49.010;8.414;2023-04-25T15:04:36;3.92;;;3.47;;